Terminal Aerodrome Forecast
Issued by NWS Quad Cities IA IL

Home | Current Version | Previous Version | Text Only | Print | Product List | Glossary On
Versions: 1 2 3 4 5 6 7 8 9 10 11 12 13 14 15 16 17 18 19 20 21 22 23 24 25 26 27
000
FTUS43 KDVN 311300 AAB
TAFDBQ
TAF AMD
KDBQ 311345Z 3114/0112 18005KT P6SM SCT020
      TEMPO 3114/3115 BKN025
     FM311500 19008KT P6SM SCT035 SCT100
     FM010700 17007KT P6SM VCTS BKN050CB
      TEMPO 0109/0112 3SM -TSRA BKN030CB=

USA.gov is the U.S. government's official web portal to all federal, state and local government web resources and services.